Time;durP1;ratioP1;P1;durP2;ratioP2;P2;SDS_P1;SDS_P2;PMS_P1;PMS_P2;Temp;Humidity;BMP_temperature;BMP_pressure;BME280_temperature;BME280_humidity;BME280_pressure;Samples;Min_cycle;Max_cycle;Signal;HPM_P1;HPM_P2
2021/05/16 00:01:03;;;;;;;24.77;13.90;;;;;;;12.38;59.76;98154.77;125463;1104;103095;-69
2021/05/16 00:03:31;;;;;;;25.17;13.87;;;;;;;12.34;59.95;98156.86;125455;1104;103217;-68
2021/05/16 00:06:00;;;;;;;26.37;13.33;;;;;;;12.33;59.88;98157.02;126452;1105;102994;-70
2021/05/16 00:08:29;;;;;;;26.13;13.53;;;;;;;12.29;60.05;98151.12;125432;1104;102371;-70
2021/05/16 00:10:58;;;;;;;27.67;14.13;;;;;;;12.29;60.22;98155.63;125470;1104;103241;-70
2021/05/16 00:13:28;;;;;;;23.10;12.37;;;;;;;12.29;60.49;98144.96;125388;1100;102815;-70
2021/05/16 00:15:57;;;;;;;27.17;14.13;;;;;;;12.28;60.49;98153.94;125305;1104;103022;-70
2021/05/16 00:18:25;;;;;;;25.37;13.17;;;;;;;12.24;60.18;98153.38;125386;1104;103098;-70
2021/05/16 00:20:54;;;;;;;27.50;12.20;;;;;;;12.20;60.57;98147.50;125396;1104;103439;-68
2021/05/16 00:23:22;;;;;;;26.10;12.77;;;;;;;12.19;60.51;98148.48;125152;1107;103003;-69
2021/05/16 00:25:51;;;;;;;27.10;12.83;;;;;;;12.22;60.73;98147.38;125179;1107;103041;-69
2021/05/16 00:28:20;;;;;;;25.30;13.03;;;;;;;12.19;60.74;98145.00;127449;1104;103104;-71
2021/05/16 00:30:48;;;;;;;25.33;12.47;;;;;;;12.19;60.60;98142.33;125571;1104;103003;-70
2021/05/16 00:33:16;;;;;;;25.93;13.80;;;;;;;12.17;60.91;98144.30;125076;1100;103100;-69
2021/05/16 00:35:45;;;;;;;24.50;13.73;;;;;;;12.14;60.94;98142.75;125142;1100;103126;-69
2021/05/16 00:38:13;;;;;;;24.17;12.67;;;;;;;12.12;60.95;98138.56;125394;1104;103056;-70
2021/05/16 00:40:41;;;;;;;24.97;13.33;;;;;;;12.08;61.02;98142.49;125466;1104;103024;-70
2021/05/16 00:43:11;;;;;;;24.80;13.03;;;;;;;12.05;61.07;98132.94;125500;1104;103508;-71
2021/05/16 00:45:43;;;;;;;25.65;13.35;;;;;;;12.02;61.20;98134.08;125572;1100;103101;-72
2021/05/16 00:48:11;;;;;;;23.37;12.43;;;;;;;12.03;61.39;98132.24;125370;1104;103132;-71
2021/05/16 00:50:47;;;;;;;24.83;12.63;;;;;;;12.01;61.38;98131.58;125521;1104;103144;-71
2021/05/16 00:53:23;;;;;;;23.30;12.47;;;;;;;12.00;61.37;98122.73;125378;1105;103093;-70
2021/05/16 00:55:54;;;;;;;25.47;12.27;;;;;;;12.00;61.46;98122.73;125540;1099;103425;-70
2021/05/16 00:58:22;;;;;;;23.30;12.13;;;;;;;12.01;61.37;98118.25;125560;1104;103093;-70
2021/05/16 01:00:52;;;;;;;22.30;11.60;;;;;;;11.99;61.55;98110.38;125407;1104;103011;-69
2021/05/16 01:03:20;;;;;;;22.67;11.60;;;;;;;11.96;61.57;98113.30;125291;1105;103084;-71
2021/05/16 01:05:49;;;;;;;22.73;11.63;;;;;;;11.93;61.85;98104.77;125505;1104;103088;-71
2021/05/16 01:08:17;;;;;;;24.50;12.63;;;;;;;11.88;61.82;98106.04;125429;1104;103022;-70
2021/05/16 01:10:47;;;;;;;24.40;10.75;;;;;;;11.87;61.95;98107.02;125483;1105;103572;-70
2021/05/16 01:13:17;;;;;;;23.85;12.40;;;;;;;11.87;61.98;98099.03;125538;1100;103065;-72
2021/05/16 01:15:47;;;;;;;22.27;11.57;;;;;;;11.87;62.13;98099.03;125430;1105;103069;-71
2021/05/16 01:18:15;;;;;;;22.37;11.27;;;;;;;11.87;62.17;98088.37;125537;1104;103022;-71
2021/05/16 01:20:47;;;;;;;22.60;11.33;;;;;;;11.88;62.33;98090.05;125472;1104;103049;-71
2021/05/16 01:23:21;;;;;;;22.37;11.27;;;;;;;11.89;62.38;98081.07;125347;1107;103020;-69
2021/05/16 01:25:49;;;;;;;20.75;10.60;;;;;;;11.93;62.54;98068.28;125453;1100;103548;-69
2021/05/16 01:28:20;;;;;;;22.33;11.57;;;;;;;11.95;62.43;98066.32;125247;1105;103080;-70
2021/05/16 01:30:50;;;;;;;23.13;11.70;;;;;;;11.97;62.45;98077.67;125461;1104;103006;-70
2021/05/16 01:33:20;;;;;;;22.87;10.97;;;;;;;11.97;62.48;98071.52;125256;1105;103089;-70
2021/05/16 01:35:48;;;;;;;22.33;11.10;;;;;;;11.97;62.63;98056.35;125453;1100;103180;-70
2021/05/16 01:38:16;;;;;;;19.77;10.47;;;;;;;11.98;62.79;98062.54;125504;1104;103048;-69
2021/05/16 01:40:45;;;;;;;22.17;11.77;;;;;;;12.00;62.98;98049.94;125522;1104;103230;-71
2021/05/16 01:43:14;;;;;;;21.23;10.70;;;;;;;12.04;62.97;98040.64;125530;1104;103099;-70
2021/05/16 01:45:45;;;;;;;21.53;10.87;;;;;;;12.09;63.10;98041.05;125589;1100;103129;-70
2021/05/16 01:48:13;;;;;;;21.60;11.05;;;;;;;12.14;63.10;98045.95;125461;1099;103026;-69
2021/05/16 01:50:42;;;;;;;21.37;10.87;;;;;;;12.17;63.31;98038.49;125271;1107;103062;-71
2021/05/16 01:53:10;;;;;;;20.63;10.53;;;;;;;12.23;63.32;98044.23;125473;1099;103122;-69
2021/05/16 01:55:39;;;;;;;21.50;10.50;;;;;;;12.25;63.28;98040.41;125497;1104;102996;-68
2021/05/16 01:58:07;;;;;;;23.47;11.27;;;;;;;12.28;63.33;98047.29;125444;1100;103003;-70
2021/05/16 02:00:41;;;;;;;21.33;10.57;;;;;;;12.34;63.38;98044.04;125495;1100;103139;-70
2021/05/16 02:03:11;;;;;;;19.40;10.10;;;;;;;12.34;63.29;98050.20;125508;1104;103029;-70
2021/05/16 02:05:40;;;;;;;23.83;10.53;;;;;;;12.29;63.21;98047.13;125331;1100;103049;-69
2021/05/16 02:08:09;;;;;;;21.13;10.57;;;;;;;12.21;63.07;98052.39;125289;1104;103035;-69
2021/05/16 02:10:37;;;;;;;22.13;10.90;;;;;;;12.12;63.14;98045.27;125425;1099;102996;-69
2021/05/16 02:13:06;;;;;;;20.63;9.10;;;;;;;12.06;63.27;98052.85;125274;1107;103276;-69
2021/05/16 02:15:34;;;;;;;20.43;10.53;;;;;;;12.00;63.06;98052.61;125155;1107;103041;-70
2021/05/16 02:18:05;;;;;;;20.70;9.83;;;;;;;11.97;63.40;98055.53;127095;1107;101018;-68
2021/05/16 02:20:33;;;;;;;21.00;10.90;;;;;;;11.94;63.53;98061.14;127133;1107;100824;-68
2021/05/16 02:23:02;;;;;;;21.87;10.93;;;;;;;11.94;63.46;98061.14;126105;1107;103022;-70
2021/05/16 02:25:31;;;;;;;21.57;11.43;;;;;;;11.93;63.82;98054.14;125426;1100;103155;-69
2021/05/16 02:27:59;;;;;;;20.67;10.77;;;;;;;11.91;63.62;98052.45;125362;1107;103097;-70
2021/05/16 02:30:28;;;;;;;19.67;9.83;;;;;;;11.90;63.82;98048.11;125559;1107;103000;-69
2021/05/16 02:32:56;;;;;;;20.67;11.03;;;;;;;11.89;64.05;98043.77;125290;1107;103136;-69
2021/05/16 02:35:25;;;;;;;21.97;11.63;;;;;;;11.89;63.96;98054.42;125337;1107;103042;-69
2021/05/16 02:37:53;;;;;;;23.53;12.10;;;;;;;11.88;63.91;98054.55;125424;1107;103024;-69
2021/05/16 02:40:24;;;;;;;23.85;12.50;;;;;;;11.87;64.03;98055.54;125372;1107;103164;-69
2021/05/16 02:42:53;;;;;;;21.17;11.30;;;;;;;11.85;64.10;98058.36;125401;1100;103000;-70
2021/05/16 02:45:24;;;;;;;22.30;12.10;;;;;;;11.82;64.15;98065.81;125393;1107;103066;-69
2021/05/16 02:47:53;;;;;;;20.93;11.80;;;;;;;11.80;64.24;98063.28;125386;1107;103029;-69
2021/05/16 02:50:21;;;;;;;24.00;13.10;;;;;;;11.75;64.48;98061.06;125394;1107;103024;-70
2021/05/16 02:52:50;;;;;;;24.60;12.60;;;;;;;11.72;64.47;98061.34;125453;1104;102997;-71
2021/05/16 02:55:19;;;;;;;20.87;11.60;;;;;;;11.70;64.58;98062.45;125418;1100;103133;-70
2021/05/16 02:57:49;;;;;;;20.63;10.50;;;;;;;11.68;64.51;98064.42;125437;1104;103096;-70
2021/05/16 03:00:20;;;;;;;21.53;9.77;;;;;;;11.65;64.54;98062.89;125601;1104;103023;-69
2021/05/16 03:02:48;;;;;;;20.57;9.63;;;;;;;11.62;64.52;98063.19;125518;1104;103155;-69
2021/05/16 03:05:16;;;;;;;20.23;9.53;;;;;;;11.59;64.54;98072.31;125502;1104;103003;-70
2021/05/16 03:07:45;;;;;;;19.30;9.10;;;;;;;11.57;64.72;98063.63;125561;1104;103147;-71
2021/05/16 03:10:13;;;;;;;18.63;9.20;;;;;;;11.56;64.97;98059.28;125524;1104;103026;-72
2021/05/16 03:12:41;;;;;;;20.63;9.73;;;;;;;11.55;64.87;98057.59;125503;1104;102997;-71
2021/05/16 03:15:12;;;;;;;20.53;9.57;;;;;;;11.54;64.94;98055.06;125498;1100;103118;-71
2021/05/16 03:17:40;;;;;;;19.47;9.73;;;;;;;11.55;65.15;98048.75;125385;1104;103019;-70
2021/05/16 03:20:10;;;;;;;18.93;8.40;;;;;;;11.57;65.18;98057.44;125442;1104;102991;-70
2021/05/16 03:22:39;;;;;;;20.87;10.10;;;;;;;11.58;65.11;98057.31;125539;1104;103100;-69
2021/05/16 03:25:10;;;;;;;20.30;8.73;;;;;;;11.60;65.20;98058.02;125432;1107;102968;-68
2021/05/16 03:27:39;;;;;;;18.43;8.53;;;;;;;11.60;65.44;98051.83;125534;1104;103093;-69
2021/05/16 03:30:11;;;;;;;20.90;8.50;;;;;;;11.60;65.23;98050.02;125534;1100;102995;-69
2021/05/16 03:32:41;;;;;;;20.13;9.40;;;;;;;11.61;65.34;98053.52;125560;1100;103001;-69
2021/05/16 03:35:12;;;;;;;19.03;9.27;;;;;;;11.62;65.35;98047.20;125542;1104;103000;-70
2021/05/16 03:37:41;;;;;;;19.73;8.73;;;;;;;11.64;65.55;98050.56;125568;1104;103101;-70
2021/05/16 03:40:10;;;;;;;18.73;9.27;;;;;;;11.69;65.62;98050.13;125614;1104;103158;-70
2021/05/16 03:42:38;;;;;;;17.13;8.37;;;;;;;11.74;65.47;98045.20;125593;1104;103093;-70
2021/05/16 03:45:09;;;;;;;18.73;8.90;;;;;;;11.78;65.63;98037.78;125566;1104;103017;-69
2021/05/16 03:47:39;;;;;;;19.93;8.67;;;;;;;11.82;65.65;98034.67;126305;1104;104029;-69
2021/05/16 03:50:13;;;;;;;19.93;9.00;;;;;;;11.87;65.71;98031.56;125542;1104;103455;-69
2021/05/16 03:52:43;;;;;;;17.00;8.47;;;;;;;11.92;65.83;98023.97;125373;1104;103109;-70
2021/05/16 03:55:13;;;;;;;15.60;7.97;;;;;;;11.97;65.96;98028.88;125434;1104;103059;-69
2021/05/16 03:57:41;;;;;;;20.20;9.53;;;;;;;11.98;65.89;98020.73;126380;1100;103444;-70
2021/05/16 04:00:11;;;;;;;18.03;8.70;;;;;;;12.02;66.05;98022.14;125432;1104;103000;-69
2021/05/16 04:02:40;;;;;;;19.05;9.40;;;;;;;12.03;66.06;98022.97;125585;1104;103016;-70
2021/05/16 04:05:08;;;;;;;16.10;8.03;;;;;;;12.05;66.29;98024.52;125554;1104;103096;-70
2021/05/16 04:07:37;;;;;;;17.13;8.00;;;;;;;12.07;66.52;98019.03;125375;1105;102989;-69
2021/05/16 04:10:07;;;;;;;19.80;9.27;;;;;;;12.09;66.30;98013.56;125499;1104;102997;-69
2021/05/16 04:12:36;;;;;;;15.27;7.63;;;;;;;12.10;66.24;98015.25;125418;1105;103216;-70
2021/05/16 04:15:06;;;;;;;18.97;8.83;;;;;;;12.14;66.38;98016.63;125517;1104;103083;-70
2021/05/16 04:17:35;;;;;;;16.07;7.93;;;;;;;12.20;66.39;98013.38;125504;1104;103100;-69
2021/05/16 04:20:05;;;;;;;15.93;7.50;;;;;;;12.26;66.74;98011.94;125371;1105;103108;-69
2021/05/16 04:22:34;;;;;;;18.00;8.47;;;;;;;12.32;66.51;98019.34;125529;1104;103096;-69
2021/05/16 04:25:04;;;;;;;15.30;7.80;;;;;;;12.35;66.45;98017.21;125497;1104;103025;-71
2021/05/16 04:27:32;;;;;;;16.57;7.53;;;;;;;12.41;66.48;98015.80;125530;1100;103530;-69
2021/05/16 04:30:01;;;;;;;15.73;7.40;;;;;;;12.46;66.60;98015.34;125424;1107;103026;-69
2021/05/16 04:32:29;;;;;;;17.90;8.67;;;;;;;12.48;66.58;98013.36;125434;1104;102997;-69
2021/05/16 04:34:58;;;;;;;15.50;7.20;;;;;;;12.48;66.67;98008.84;125494;1104;103026;-70
2021/05/16 04:37:26;;;;;;;16.83;7.23;;;;;;;12.51;66.64;98005.06;125300;1104;103155;-70
2021/05/16 04:39:56;;;;;;;16.25;7.30;;;;;;;12.53;66.67;98000.41;125525;1104;102997;-69
2021/05/16 04:42:25;;;;;;;13.40;6.80;;;;;;;12.56;66.86;98000.12;125431;1104;103081;-69
2021/05/16 04:44:54;;;;;;;15.43;7.33;;;;;;;12.58;66.68;97995.47;125443;1104;103187;-69
2021/05/16 04:47:22;;;;;;;14.90;6.93;;;;;;;12.60;66.63;98003.31;125340;1107;103006;-69
2021/05/16 04:49:51;;;;;;;12.43;6.57;;;;;;;12.59;66.56;97996.30;125369;1107;103120;-69
2021/05/16 04:52:19;;;;;;;13.60;6.20;;;;;;;12.60;66.77;97995.30;125409;1107;103068;-70
2021/05/16 04:54:47;;;;;;;14.87;7.23;;;;;;;12.62;66.65;97990.66;125465;1107;103225;-71
2021/05/16 04:57:16;;;;;;;12.30;5.90;;;;;;;12.68;66.92;97989.20;125479;1104;103195;-71
2021/05/16 04:59:48;;;;;;;12.37;5.80;;;;;;;12.72;66.88;97993.25;125386;1104;103055;-71
2021/05/16 05:02:17;;;;;;;13.23;5.60;;;;;;;12.77;66.98;97994.49;125388;1107;102998;-69
2021/05/16 05:04:46;;;;;;;11.67;5.70;;;;;;;12.88;67.06;97996.08;125280;1100;103118;-69
2021/05/16 05:07:16;;;;;;;12.80;6.30;;;;;;;13.01;66.95;98003.70;125527;1104;102997;-70
2021/05/16 05:09:44;;;;;;;13.80;6.67;;;;;;;13.13;66.95;97992.79;125310;1100;103193;-69
2021/05/16 05:12:12;;;;;;;13.20;6.63;;;;;;;13.25;67.05;97995.05;125388;1104;102995;-69
2021/05/16 05:14:41;;;;;;;13.40;6.10;;;;;;;13.35;66.73;98005.63;125332;1107;103129;-70
2021/05/16 05:17:09;;;;;;;14.20;6.90;;;;;;;13.44;67.16;98011.93;125398;1100;102996;-71
2021/05/16 05:19:38;;;;;;;14.00;6.70;;;;;;;13.54;67.17;98007.30;125501;1104;103136;-70
2021/05/16 05:22:06;;;;;;;10.07;5.53;;;;;;;13.67;67.21;98014.07;125484;1104;103229;-70
2021/05/16 05:24:34;;;;;;;11.30;5.60;;;;;;;13.77;67.10;98001.45;125388;1100;103075;-70
2021/05/16 05:27:03;;;;;;;8.73;4.80;;;;;;;13.86;67.20;98007.67;125375;1107;103028;-70
2021/05/16 05:29:31;;;;;;;7.57;4.57;;;;;;;13.88;67.17;98010.17;125385;1104;103091;-70
2021/05/16 05:31:59;;;;;;;5.13;3.30;;;;;;;13.87;67.03;98011.16;125384;1107;103546;-71
2021/05/16 05:34:29;;;;;;;6.27;3.40;;;;;;;13.88;67.01;97997.66;125466;1104;103094;-71
2021/05/16 05:36:57;;;;;;;4.40;2.90;;;;;;;13.94;67.11;97999.70;125408;1104;103102;-73
2021/05/16 05:39:26;;;;;;;4.70;3.00;;;;;;;13.98;67.23;97993.03;125324;1107;103088;-73
2021/05/16 05:41:55;;;;;;;5.23;3.23;;;;;;;14.03;67.21;98000.56;125309;1107;103218;-74
2021/05/16 05:44:24;;;;;;;8.17;3.90;;;;;;;14.05;67.08;97997.75;125310;1100;103097;-73
2021/05/16 05:46:52;;;;;;;4.37;3.03;;;;;;;14.05;67.05;97995.89;125454;1100;103145;-70
2021/05/16 05:49:23;;;;;;;4.65;2.40;;;;;;;14.06;67.11;97986.88;125495;1104;103106;-71
2021/05/16 05:51:52;;;;;;;9.63;3.27;;;;;;;14.06;67.08;97994.90;125483;1104;103037;-69
2021/05/16 05:54:20;;;;;;;4.83;3.00;;;;;;;14.07;67.03;97990.38;125538;1100;103480;-69
2021/05/16 05:56:49;;;;;;;4.50;3.20;;;;;;;14.11;67.31;97999.75;125427;1104;103218;-71
2021/05/16 05:59:17;;;;;;;7.53;3.50;;;;;;;14.16;67.23;98008.13;125397;1100;103127;-70
2021/05/16 06:01:45;;;;;;;6.13;3.30;;;;;;;14.17;67.21;98011.66;125328;1099;103155;-69
2021/05/16 06:04:14;;;;;;;7.50;3.50;;;;;;;14.19;67.16;98012.34;125418;1104;103151;-70
2021/05/16 06:06:42;;;;;;;5.50;3.00;;;;;;;14.25;67.41;98014.38;125446;1104;103066;-72
2021/05/16 06:09:11;;;;;;;4.13;2.67;;;;;;;14.30;67.37;98014.70;125408;1104;103086;-71
2021/05/16 06:11:39;;;;;;;5.37;2.60;;;;;;;14.35;67.27;98009.71;125486;1100;103091;-73
2021/05/16 06:14:08;;;;;;;3.33;2.33;;;;;;;14.40;67.42;98014.59;125527;1104;103032;-71
2021/05/16 06:16:36;;;;;;;3.00;2.47;;;;;;;14.48;67.16;98014.59;125551;1104;103032;-71
2021/05/16 06:19:04;;;;;;;2.57;2.10;;;;;;;14.55;67.16;98020.16;125383;1104;103089;-71
2021/05/16 06:21:33;;;;;;;3.80;2.90;;;;;;;14.59;67.13;98025.00;125485;1104;103028;-72
2021/05/16 06:24:11;;;;;;;3.90;2.20;;;;;;;14.63;67.23;98025.53;125320;1107;103023;-72
2021/05/16 06:26:45;;;;;;;4.27;2.07;;;;;;;14.70;67.64;98031.09;125472;1104;103093;-71
2021/05/16 06:29:14;;;;;;;3.87;2.20;;;;;;;14.75;67.32;98026.09;125509;1104;103029;-72
2021/05/16 06:31:43;;;;;;;4.07;1.90;;;;;;;14.82;67.26;98020.91;125378;1107;103094;-72
2021/05/16 06:34:12;;;;;;;2.67;2.40;;;;;;;14.85;67.33;98020.58;125538;1104;103076;-71
2021/05/16 06:36:40;;;;;;;3.23;2.13;;;;;;;14.84;67.09;98019.75;125331;1107;103122;-71
2021/05/16 06:39:08;;;;;;;3.10;2.27;;;;;;;14.84;67.14;98018.91;125417;1107;103129;-71
2021/05/16 06:41:37;;;;;;;3.00;2.27;;;;;;;14.80;67.13;98026.44;125346;1100;102997;-72
2021/05/16 06:44:05;;;;;;;6.00;2.40;;;;;;;14.81;67.15;98025.44;125387;1107;102999;-71
2021/05/16 06:46:33;;;;;;;3.10;2.40;;;;;;;14.79;66.84;98022.08;125357;1100;103091;-70
2021/05/16 06:49:02;;;;;;;4.37;2.63;;;;;;;14.75;67.10;98018.06;125364;1107;103091;-70
2021/05/16 06:51:30;;;;;;;3.27;2.10;;;;;;;14.72;67.01;98019.20;125344;1107;103548;-68
2021/05/16 06:53:59;;;;;;;2.50;1.90;;;;;;;14.71;66.95;98020.20;125108;1104;103013;-69
2021/05/16 06:56:28;;;;;;;5.17;2.30;;;;;;;14.67;66.87;98024.17;125450;1104;103020;-69
2021/05/16 06:58:58;;;;;;;3.33;2.50;;;;;;;14.60;66.68;98023.18;125439;1104;103171;-73
2021/05/16 07:01:27;;;;;;;2.63;2.10;;;;;;;14.54;66.74;98026.50;125329;1104;103058;-72
2021/05/16 07:03:55;;;;;;;4.43;2.70;;;;;;;14.47;66.80;98023.63;125492;1104;103107;-74
2021/05/16 07:06:23;;;;;;;3.10;2.40;;;;;;;14.43;66.92;98015.09;125386;1105;103006;-74
2021/05/16 07:08:52;;;;;;;3.83;3.00;;;;;;;14.39;66.62;98019.09;125517;1104;103000;-72
2021/05/16 07:11:20;;;;;;;4.73;2.67;;;;;;;14.36;66.81;98016.73;125521;1104;103206;-75
2021/05/16 07:13:48;;;;;;;4.00;2.27;;;;;;;14.32;66.85;98009.20;125547;1104;103340;-74
2021/05/16 07:16:17;;;;;;;5.60;3.00;;;;;;;14.28;66.81;98022.05;125331;1105;103026;-71
2021/05/16 07:18:46;;;;;;;4.07;2.77;;;;;;;14.22;66.98;98010.17;125350;1104;103184;-71
2021/05/16 07:21:15;;;;;;;4.73;2.53;;;;;;;14.19;66.94;98015.84;125348;1105;103026;-75
2021/05/16 07:23:43;;;;;;;4.63;3.10;;;;;;;14.13;66.98;98008.45;125398;1100;103104;-77
2021/05/16 07:26:14;;;;;;;6.03;3.07;;;;;;;14.13;67.15;98011.13;125315;1107;102998;-69
2021/05/16 07:28:42;;;;;;;10.57;4.30;;;;;;;14.18;67.05;98007.98;125493;1100;103120;-69
2021/05/16 07:31:12;;;;;;;5.63;2.93;;;;;;;14.23;67.28;98011.84;125503;1104;102998;-68
2021/05/16 07:33:40;;;;;;;5.73;3.00;;;;;;;14.28;67.10;98011.35;125490;1100;103093;-70
2021/05/16 07:36:08;;;;;;;8.53;3.60;;;;;;;14.31;67.37;98015.55;125445;1104;103099;-70
2021/05/16 07:38:37;;;;;;;6.43;3.20;;;;;;;14.39;67.27;98013.73;125465;1104;103534;-71
2021/05/16 07:41:05;;;;;;;5.80;3.10;;;;;;;14.57;67.31;98018.16;125291;1104;103000;-78
2021/05/16 07:43:33;;;;;;;4.23;2.73;;;;;;;14.85;67.01;98012.55;125418;1104;103091;-70
2021/05/16 07:46:04;;;;;;;5.30;2.90;;;;;;;15.35;66.76;98012.58;125415;1104;103638;-68
2021/05/16 07:48:32;;;;;;;4.13;2.77;;;;;;;15.43;67.17;98010.72;125530;1104;103088;-75
2021/05/16 07:51:02;;;;;;;8.57;3.33;;;;;;;15.51;67.23;98011.72;125357;1100;103093;-74
2021/05/16 07:53:31;;;;;;;8.00;3.27;;;;;;;15.54;67.29;98016.75;125550;1104;103151;-71
2021/05/16 07:56:00;;;;;;;6.93;3.10;;;;;;;15.56;67.12;98017.41;125549;1104;103020;-68
2021/05/16 07:58:28;;;;;;;6.80;3.10;;;;;;;16.09;66.55;98007.09;125337;1107;103504;-79
2021/05/16 08:00:57;;;;;;;6.30;2.90;;;;;;;16.49;66.76;98009.78;125318;1105;103194;-76
2021/05/16 08:03:25;;;;;;;8.57;3.30;;;;;;;16.52;66.72;98012.94;125314;1100;103000;-76
2021/05/16 08:05:54;;;;;;;4.60;2.80;;;;;;;16.48;66.97;98016.98;125385;1104;103072;-75
2021/05/16 08:08:22;;;;;;;5.17;2.90;;;;;;;16.54;67.08;98022.66;125347;1105;103030;-75
2021/05/16 08:10:51;;;;;;;4.20;2.87;;;;;;;16.85;66.83;98022.66;125323;1107;103099;-80
2021/05/16 08:13:19;;;;;;;3.27;2.40;;;;;;;17.41;66.37;98016.20;125335;1107;103106;-73
2021/05/16 08:15:48;;;;;;;5.80;3.10;;;;;;;17.40;67.25;98011.84;125484;1100;103157;-73
2021/05/16 08:18:16;;;;;;;5.97;3.13;;;;;;;17.54;66.90;98015.58;125388;1100;103072;-75
2021/05/16 08:20:45;;;;;;;3.33;2.67;;;;;;;17.50;67.39;98009.75;125348;1100;103099;-76
2021/05/16 08:23:13;;;;;;;7.10;3.47;;;;;;;17.47;67.01;98026.23;125383;1104;103128;-72
2021/05/16 08:25:42;;;;;;;5.40;3.00;;;;;;;17.44;67.19;98023.09;125463;1104;103261;-73
2021/05/16 08:28:10;;;;;;;4.27;2.77;;;;;;;17.38;67.17;98020.11;125333;1107;103143;-75
2021/05/16 08:30:39;;;;;;;4.47;2.23;;;;;;;17.23;66.61;98020.06;125371;1104;103017;-78
2021/05/16 08:33:07;;;;;;;4.20;2.70;;;;;;;17.06;66.92;98019.36;125484;1104;103066;-79
2021/05/16 08:35:36;;;;;;;4.70;2.67;;;;;;;16.93;67.12;98024.45;125402;1100;103002;-80
2021/05/16 08:38:04;;;;;;;3.97;2.17;;;;;;;16.85;66.77;98017.29;125330;1107;103223;-79
2021/05/16 08:40:32;;;;;;;4.93;2.77;;;;;;;16.76;66.88;98029.09;125339;1105;103123;-79
2021/05/16 08:43:02;;;;;;;4.05;2.50;;;;;;;16.66;67.07;98030.14;125442;1104;103068;-79
2021/05/16 08:45:33;;;;;;;5.67;2.70;;;;;;;16.61;66.91;98019.09;125325;1107;103032;-84
2021/05/16 08:48:04;;;;;;;5.87;3.00;;;;;;;16.58;66.80;98023.99;125523;1100;102997;-82
2021/05/16 08:50:33;;;;;;;3.67;2.37;;;;;;;16.63;66.80;98027.81;125527;1104;103175;-77
2021/05/16 08:53:01;;;;;;;5.97;2.83;;;;;;;16.72;66.87;98041.20;125284;1100;103104;-79
2021/05/16 08:55:30;;;;;;;3.70;2.63;;;;;;;16.81;66.88;98038.27;125559;1104;103483;-74
2021/05/16 08:57:58;;;;;;;3.80;2.50;;;;;;;16.92;66.59;98028.15;125312;1100;103136;-78
2021/05/16 09:00:28;;;;;;;3.77;2.50;;;;;;;16.98;66.72;98027.47;125312;1100;103148;-78
2021/05/16 09:03:13;;;;;;;4.57;2.53;;;;;;;17.06;66.66;98030.11;125337;1100;103050;-77
2021/05/16 09:05:44;;;;;;;2.97;1.87;;;;;;;17.22;66.45;98034.52;125512;1104;103075;-72
2021/05/16 09:08:24;;;;;;;4.60;2.40;;;;;;;17.37;65.96;98033.71;125355;1107;103074;-75
2021/05/16 09:10:56;;;;;;;4.10;2.43;;;;;;;17.60;66.11;98030.17;125363;1100;103093;-72
2021/05/16 09:13:38;;;;;;;5.40;2.50;;;;;;;17.65;66.06;98031.28;125407;1105;103035;-76
2021/05/16 09:16:17;;;;;;;3.93;2.10;;;;;;;17.62;66.31;98025.45;125573;1104;103149;-73
2021/05/16 09:18:51;;;;;;;4.65;2.20;;;;;;;17.48;66.31;98027.91;125482;1104;103029;-73
2021/05/16 09:21:30;;;;;;;4.33;2.37;;;;;;;17.28;65.99;98027.58;125445;1104;103030;-76
2021/05/16 09:24:04;;;;;;;3.80;2.50;;;;;;;17.10;66.09;98025.20;125468;1104;103121;-73
2021/05/16 09:26:50;;;;;;;6.07;2.57;;;;;;;16.91;66.10;98029.98;125530;1104;103029;-75
2021/05/16 09:29:29;;;;;;;5.28;2.38;;;;;;;16.72;65.96;98033.95;125482;1100;102993;-71
2021/05/16 09:32:00;;;;;;;4.93;2.30;;;;;;;16.57;65.86;98028.51;125461;1100;103253;-73
2021/05/16 09:34:30;;;;;;;3.93;2.60;;;;;;;16.45;65.96;98024.56;125401;1099;102994;-73
2021/05/16 09:36:59;;;;;;;4.40;3.07;;;;;;;16.32;65.80;98025.95;125321;1105;103030;-73
2021/05/16 09:39:30;;;;;;;6.13;2.67;;;;;;;16.25;65.86;98021.46;125331;1099;103016;-70
2021/05/16 09:42:09;;;;;;;4.57;2.50;;;;;;;16.16;65.96;98017.95;125388;1104;103280;-71
2021/05/16 09:44:45;;;;;;;3.00;2.33;;;;;;;16.09;65.92;98012.45;125312;1107;103071;-71
2021/05/16 09:47:26;;;;;;;6.97;2.87;;;;;;;16.00;65.67;98010.80;125569;1104;102994;-72
2021/05/16 09:50:02;;;;;;;6.97;3.03;;;;;;;15.88;66.00;98011.20;125501;1104;103089;-73
2021/05/16 09:52:35;;;;;;;4.80;2.80;;;;;;;15.86;66.03;98009.64;125616;1099;103499;-73
2021/05/16 09:55:05;;;;;;;6.25;3.08;;;;;;;15.85;66.29;98013.33;125470;1104;103029;-73
2021/05/16 09:57:36;;;;;;;5.47;2.90;;;;;;;15.85;66.03;98014.19;125485;1104;103025;-73
2021/05/16 10:00:07;;;;;;;4.53;2.80;;;;;;;15.83;66.09;98021.56;125533;1104;103095;-71
2021/05/16 10:02:36;;;;;;;6.20;2.80;;;;;;;15.79;66.02;98017.55;125574;1104;103025;-77
2021/05/16 10:05:08;;;;;;;4.77;2.90;;;;;;;15.71;66.09;98017.55;125361;1105;103135;-73
2021/05/16 10:07:38;;;;;;;5.45;2.60;;;;;;;15.67;65.99;98022.44;125340;1107;103099;-72
2021/05/16 10:10:10;;;;;;;4.27;3.10;;;;;;;15.62;65.95;98019.42;125321;1107;103107;-73
2021/05/16 10:12:40;;;;;;;5.07;2.83;;;;;;;15.62;66.15;98016.74;125333;1107;103115;-73
2021/05/16 10:15:14;;;;;;;3.53;2.73;;;;;;;15.60;66.17;98013.39;125270;1107;103047;-72
2021/05/16 10:17:48;;;;;;;7.77;3.30;;;;;;;15.59;66.21;98006.36;125578;1104;103096;-72
2021/05/16 10:20:21;;;;;;;5.63;3.33;;;;;;;15.61;66.07;98015.89;125342;1100;103228;-72
2021/05/16 10:23:06;;;;;;;4.73;3.00;;;;;;;15.59;66.13;98017.08;125203;1107;103582;-73
2021/05/16 10:25:42;;;;;;;4.03;2.87;;;;;;;15.59;66.23;98011.72;125245;1104;103000;-71
2021/05/16 10:28:17;;;;;;;3.47;2.77;;;;;;;15.62;66.40;98011.38;125245;1107;103009;-71
2021/05/16 10:31:14;;;;;;;4.43;2.97;;;;;;;15.69;66.47;98006.98;125161;1099;103124;-72
2021/05/16 10:33:43;;;;;;;5.40;2.97;;;;;;;15.80;66.50;98008.50;125206;1104;103155;-71
2021/05/16 10:36:11;;;;;;;4.45;2.60;;;;;;;15.91;66.57;98002.78;125364;1104;103522;-72
2021/05/16 10:38:49;;;;;;;6.40;3.03;;;;;;;16.02;66.53;97990.86;125277;1105;103083;-72
2021/05/16 10:41:25;;;;;;;5.37;3.13;;;;;;;16.15;66.51;97998.35;125404;1104;103094;-72
2021/05/16 10:44:29;;;;;;;5.50;2.70;;;;;;;16.23;66.46;97992.11;125282;1104;103205;-71
2021/05/16 10:46:58;;;;;;;2.77;2.27;;;;;;;16.33;66.69;97979.33;125048;1105;103126;-72
2021/05/16 10:49:31;;;;;;;3.23;2.40;;;;;;;16.42;66.49;97987.34;125305;1104;103100;-72
2021/05/16 10:52:29;;;;;;;5.98;2.45;;;;;;;16.53;66.68;97986.92;125107;1100;103048;-72
2021/05/16 10:55:05;;;;;;;3.37;2.60;;;;;;;16.70;66.82;97978.78;125493;1104;103097;-72
2021/05/16 10:57:39;;;;;;;3.58;2.40;;;;;;;16.85;66.57;97985.06;125259;1104;103075;-72
2021/05/16 11:00:26;;;;;;;3.60;2.53;;;;;;;16.98;66.56;97979.13;125266;1105;103330;-70
2021/05/16 11:03:11;;;;;;;3.77;2.40;;;;;;;17.03;66.37;97970.52;125374;1105;103257;-71
2021/05/16 11:08:20;;;;;;;4.93;2.07;;;;;;;16.98;66.46;97973.75;125548;1104;103733;-72
2021/05/16 11:10:51;;;;;;;6.50;2.60;;;;;;;16.94;66.11;97970.53;125385;1100;103097;-71
2021/05/16 11:13:26;;;;;;;7.17;2.70;;;;;;;16.95;66.45;97966.02;125315;1099;103104;-72
2021/05/16 11:16:10;;;;;;;5.47;2.60;;;;;;;17.02;66.56;97955.41;125336;1105;101134;-73
2021/05/16 11:18:40;;;;;;;2.75;2.10;;;;;;;17.12;66.38;97958.69;125539;1104;103064;-74
2021/05/16 11:21:09;;;;;;;3.53;2.17;;;;;;;17.21;66.40;97954.92;125359;1100;103097;-73
2021/05/16 11:23:44;;;;;;;4.97;2.63;;;;;;;17.29;66.15;97955.87;125647;1105;102992;-72
2021/05/16 11:26:22;;;;;;;3.10;2.30;;;;;;;17.35;66.44;97950.59;125401;1107;103056;-72
2021/05/16 11:28:50;;;;;;;4.17;2.60;;;;;;;17.35;66.01;97950.59;125297;1104;103131;-76